Time;durP1;ratioP1;P1;durP2;ratioP2;P2;SDS_P1;SDS_P2;PMS_P1;PMS_P2;Temp;Humidity;BMP_temperature;BMP_pressure;BME280_temperature;BME280_humidity;BME280_pressure;Samples;Min_cycle;Max_cycle;Signal;HPM_P1;HPM_P2
2021/04/13 00:00:00;;;;;;;24.63;16.90;;;1.40;75.50;;;;;;5047444;28;20036;-72
2021/04/13 00:02:38;;;;;;;28.30;18.70;;;1.50;75.70;;;;;;5046199;28;20041;-72
2021/04/13 00:05:33;;;;;;;29.25;19.60;;;1.40;75.70;;;;;;5044950;28;20476;-79
2021/04/13 00:08:05;;;;;;;26.02;18.95;;;1.50;76.00;;;;;;5020893;28;20087;-76
2021/04/13 00:10:39;;;;;;;26.25;18.50;;;1.50;76.10;;;;;;5058791;28;20029;-71
2021/04/13 00:13:05;;;;;;;24.10;18.10;;;1.50;76.10;;;;;;5061260;28;20044;-72
2021/04/13 00:15:46;;;;;;;27.52;18.80;;;1.40;75.80;;;;;;5059718;28;20530;-72
2021/04/13 00:18:15;;;;;;;31.40;19.38;;;1.40;75.60;;;;;;5063024;28;20048;-72
2021/04/13 00:20:52;;;;;;;29.85;19.95;;;1.30;75.60;;;;;;5066139;28;20069;-72
2021/04/13 00:23:18;;;;;;;31.95;19.95;;;1.30;75.90;;;;;;5066556;28;20047;-72
2021/04/13 00:26:00;;;;;;;33.90;21.48;;;1.30;76.10;;;;;;5067715;28;20135;-72
2021/04/13 00:28:32;;;;;;;29.75;19.42;;;1.30;76.20;;;;;;5062467;28;20083;-72
2021/04/13 00:31:04;;;;;;;30.70;19.33;;;1.20;76.50;;;;;;5056214;28;20040;-72
2021/04/13 00:33:40;;;;;;;30.95;19.35;;;1.20;76.60;;;;;;5061708;28;20383;-73
2021/04/13 00:36:10;;;;;;;32.67;18.73;;;1.20;76.70;;;;;;5048344;28;20028;-73
2021/04/13 00:38:47;;;;;;;28.35;19.02;;;1.20;76.80;;;;;;5053951;28;20045;-71
2021/04/13 00:41:30;;;;;;;26.92;17.65;;;1.20;76.80;;;;;;5055045;28;20025;-71
2021/04/13 00:44:00;;;;;;;28.17;18.80;;;1.30;77.00;;;;;;5046636;28;20036;-73
2021/04/13 00:46:38;;;;;;;27.90;17.42;;;1.20;76.90;;;;;;5044510;28;20033;-72
2021/04/13 00:49:04;;;;;;;24.90;18.05;;;1.20;76.90;;;;;;5044647;28;20037;-73
2021/04/13 00:51:42;;;;;;;26.90;18.08;;;1.20;76.90;;;;;;5065918;28;20060;-72
2021/04/13 00:54:20;;;;;;;23.90;17.17;;;1.10;77.10;;;;;;5061268;28;20380;-72
2021/04/13 00:56:47;;;;;;;28.08;18.33;;;1.20;77.10;;;;;;5061557;28;20063;-76
2021/04/13 00:59:15;;;;;;;25.17;17.33;;;1.10;76.80;;;;;;5064080;28;20032;-72
2021/04/13 01:02:05;;;;;;;25.02;17.08;;;1.10;77.00;;;;;;5065197;28;20048;-72
2021/04/13 01:04:49;;;;;;;24.60;17.58;;;1.10;76.80;;;;;;5064305;28;20032;-72
2021/04/13 01:07:18;;;;;;;24.13;16.42;;;1.10;76.70;;;;;;5065666;28;20029;-71
2021/04/13 01:09:50;;;;;;;22.08;15.70;;;1.00;76.70;;;;;;5066037;28;20025;-74
2021/04/13 01:12:31;;;;;;;25.98;17.02;;;1.00;76.70;;;;;;5056849;28;20328;-72
2021/04/13 01:15:00;;;;;;;25.02;16.95;;;0.90;76.90;;;;;;5063869;28;20593;-72
2021/04/13 01:17:27;;;;;;;24.88;16.63;;;0.90;76.90;;;;;;5065441;28;20039;-75
2021/04/13 01:20:05;;;;;;;24.38;16.88;;;0.90;77.00;;;;;;5061865;28;20523;-72
2021/04/13 01:25:22;;;;;;;24.00;17.15;;;0.90;77.70;;;;;;5040281;28;20467;-72
2021/04/13 01:27:52;;;;;;;24.73;16.33;;;0.90;77.80;;;;;;5038944;28;20179;-72
2021/04/13 01:30:20;;;;;;;25.85;16.85;;;1.00;77.90;;;;;;5040481;28;20052;-72
2021/04/13 01:32:46;;;;;;;23.15;15.90;;;1.00;77.90;;;;;;5042224;28;20514;-71
2021/04/13 01:35:14;;;;;;;22.33;16.02;;;1.00;77.80;;;;;;5037724;28;20029;-72
2021/04/13 01:40:30;;;;;;;22.60;15.35;;;0.90;77.80;;;;;;5047288;28;20087;-71
2021/04/13 01:42:58;;;;;;;22.17;16.45;;;0.90;77.80;;;;;;5052497;28;20391;-71
2021/04/13 01:45:31;;;;;;;24.23;15.88;;;0.80;77.80;;;;;;5051022;28;20512;-74
2021/04/13 01:47:57;;;;;;;22.95;16.30;;;0.80;77.90;;;;;;5052843;28;20375;-72
2021/04/13 01:50:22;;;;;;;24.77;16.90;;;0.80;77.70;;;;;;5057075;28;20103;-72
2021/04/13 01:52:58;;;;;;;21.83;15.95;;;0.70;77.70;;;;;;5065964;28;20081;-71
2021/04/13 01:55:28;;;;;;;22.40;16.50;;;0.70;77.60;;;;;;5057691;28;20025;-71
2021/04/13 01:58:07;;;;;;;22.25;15.60;;;0.70;77.60;;;;;;5067618;28;20028;-72
2021/04/13 02:01:10;;;;;;;22.60;16.20;;;0.70;77.70;;;;;;5044542;28;20029;-73
2021/04/13 02:03:46;;;;;;;22.30;16.35;;;0.70;77.80;;;;;;5050732;28;20064;-71
2021/04/13 02:06:36;;;;;;;25.52;17.02;;;0.60;78.00;;;;;;5065155;28;20039;-71
2021/04/13 02:09:36;;;;;;;24.58;16.33;;;0.60;78.10;;;;;;5064773;28;20040;-73
2021/04/13 02:12:08;;;;;;;23.02;16.75;;;0.60;78.30;;;;;;5067603;28;20491;-77
2021/04/13 02:14:39;;;;;;;23.58;16.35;;;0.60;78.40;;;;;;5061516;28;20057;-77
2021/04/13 02:17:12;;;;;;;25.27;16.20;;;0.60;78.40;;;;;;5064840;28;20407;-72
2021/04/13 02:19:43;;;;;;;24.73;16.75;;;0.60;78.60;;;;;;5061994;28;20383;-75
2021/04/13 02:22:13;;;;;;;24.20;16.60;;;0.60;78.70;;;;;;5046264;28;20049;-72
2021/04/13 02:24:39;;;;;;;22.55;16.42;;;0.60;78.70;;;;;;5054871;28;20395;-76
2021/04/13 02:27:14;;;;;;;23.38;15.35;;;0.60;78.70;;;;;;5053607;28;20484;-71
2021/04/13 02:29:46;;;;;;;25.42;16.83;;;0.50;78.70;;;;;;5061862;28;20033;-76
2021/04/13 02:32:19;;;;;;;25.02;16.27;;;0.50;78.80;;;;;;5051744;28;20052;-72
2021/04/13 02:34:54;;;;;;;25.75;17.25;;;0.50;78.90;;;;;;5062634;28;20029;-72
2021/04/13 02:37:48;;;;;;;27.60;17.52;;;0.50;79.00;;;;;;5048278;28;20017;-71
2021/04/13 02:40:18;;;;;;;25.27;17.08;;;0.40;79.00;;;;;;5046399;28;20413;-71
2021/04/13 02:42:46;;;;;;;26.42;16.95;;;0.50;79.00;;;;;;5069068;28;20125;-72
2021/04/13 02:45:22;;;;;;;24.30;17.80;;;0.50;79.10;;;;;;5064181;28;20039;-73
2021/04/13 02:47:52;;;;;;;25.30;17.40;;;0.50;79.20;;;;;;5063466;28;20074;-71
2021/04/13 02:50:19;;;;;;;28.30;17.70;;;0.50;79.10;;;;;;5063223;28;20078;-74
2021/04/13 02:52:49;;;;;;;24.50;16.27;;;0.50;79.20;;;;;;5046109;28;20166;-73
2021/04/13 02:55:26;;;;;;;24.45;16.55;;;0.50;79.20;;;;;;5044534;28;20033;-71
2021/04/13 02:57:54;;;;;;;24.73;16.67;;;0.50;79.10;;;;;;5058136;28;20060;-71
2021/04/13 03:00:29;;;;;;;21.50;15.70;;;0.50;79.00;;;;;;5049315;28;20025;-72
2021/04/13 03:03:00;;;;;;;22.50;15.50;;;0.50;79.10;;;;;;5066866;28;20028;-72
2021/04/13 03:05:28;;;;;;;24.20;16.13;;;0.50;79.00;;;;;;5052116;28;20083;-71
2021/04/13 03:07:56;;;;;;;23.38;16.20;;;0.50;78.80;;;;;;5052409;28;20418;-72
2021/04/13 03:10:35;;;;;;;25.13;16.65;;;0.50;78.90;;;;;;5047711;28;20027;-71
2021/04/13 03:13:07;;;;;;;21.58;14.93;;;0.50;79.10;;;;;;5063130;28;20046;-71
2021/04/13 03:15:36;;;;;;;22.30;15.90;;;0.50;79.00;;;;;;5047748;28;20086;-74
2021/04/13 03:18:09;;;;;;;28.40;16.67;;;0.60;79.10;;;;;;5037070;28;20472;-73
2021/04/13 03:20:40;;;;;;;21.65;15.60;;;0.60;79.20;;;;;;5042204;28;20025;-72
2021/04/13 03:23:07;;;;;;;24.45;15.60;;;0.60;79.20;;;;;;5054086;28;20085;-73
2021/04/13 03:25:36;;;;;;;26.17;16.23;;;0.50;79.40;;;;;;5044094;28;20033;-73
2021/04/13 03:28:05;;;;;;;23.58;15.73;;;0.50;79.50;;;;;;5066405;28;20387;-72
2021/04/13 03:30:35;;;;;;;24.27;15.68;;;0.50;79.50;;;;;;5058488;28;20024;-72
2021/04/13 03:33:25;;;;;;;25.42;16.73;;;0.50;79.40;;;;;;5047888;28;20434;-75
2021/04/13 03:35:56;;;;;;;26.67;16.92;;;0.50;79.50;;;;;;5060896;28;20041;-72
2021/04/13 03:38:24;;;;;;;25.05;16.88;;;0.50;79.50;;;;;;5047273;28;20028;-71
2021/04/13 03:40:51;;;;;;;27.25;17.80;;;0.50;79.70;;;;;;5067222;28;20391;-72
2021/04/13 03:43:23;;;;;;;24.00;16.73;;;0.40;79.40;;;;;;5064268;28;20028;-72
2021/04/13 03:46:05;;;;;;;26.55;16.88;;;0.40;79.30;;;;;;5060164;28;20037;-73
2021/04/13 03:48:32;;;;;;;27.05;16.77;;;0.40;79.50;;;;;;5064547;28;20476;-73
2021/04/13 03:51:11;;;;;;;26.05;17.05;;;0.30;79.50;;;;;;5068065;28;20480;-72
2021/04/13 03:53:46;;;;;;;24.52;16.70;;;0.20;79.50;;;;;;5063978;28;20373;-72
2021/04/13 03:56:14;;;;;;;23.88;16.35;;;0.20;79.80;;;;;;5066705;28;20035;-72
2021/04/13 03:58:47;;;;;;;27.63;17.70;;;0.20;79.90;;;;;;5063180;28;20117;-72
2021/04/13 04:01:18;;;;;;;22.98;16.65;;;0.20;80.10;;;;;;5052575;28;20090;-72
2021/04/13 04:03:46;;;;;;;23.60;16.55;;;0.10;80.00;;;;;;5058638;28;20033;-71
2021/04/13 04:06:15;;;;;;;27.75;17.30;;;0.10;80.20;;;;;;5059714;28;20028;-72
2021/04/13 04:08:46;;;;;;;24.05;16.85;;;0.10;80.20;;;;;;5062569;28;20032;-72
2021/04/13 04:11:12;;;;;;;25.58;17.73;;;0.10;80.10;;;;;;5066912;28;20099;-73
2021/04/13 04:13:47;;;;;;;28.00;17.25;;;0.00;79.90;;;;;;5065835;28;20071;-72
2021/04/13 04:16:19;;;;;;;24.05;17.67;;;0.00;80.00;;;;;;5066665;28;20170;-71
2021/04/13 04:18:50;;;;;;;32.50;20.45;;;0.00;80.30;;;;;;5061889;28;20029;-72
2021/04/13 04:21:33;;;;;;;28.85;19.38;;;0.00;80.50;;;;;;5053644;28;20036;-79
2021/04/13 04:24:16;;;;;;;24.90;17.50;;;0.00;80.60;;;;;;5059533;28;20490;-71
2021/04/13 04:26:57;;;;;;;32.35;19.58;;;0.00;80.70;;;;;;5066070;28;20076;-71
2021/04/13 04:29:36;;;;;;;32.97;21.23;;;0.00;80.90;;;;;;5057170;28;20363;-72
2021/04/13 04:32:18;;;;;;;37.38;20.92;;;0.00;80.90;;;;;;5043314;28;20388;-71
2021/04/13 04:34:43;;;;;;;29.25;20.05;;;0.00;80.90;;;;;;5042973;28;20333;-72
2021/04/13 04:37:30;;;;;;;32.60;23.45;;;0.00;80.90;;;;;;5042277;28;20089;-79
2021/04/13 04:40:23;;;;;;;32.58;20.80;;;-3276.70;80.90;;;;;;5045653;28;20086;-71
2021/04/13 04:42:57;;;;;;;28.70;19.15;;;0.00;81.00;;;;;;5057397;28;20029;-71
2021/04/13 04:45:34;;;;;;;27.70;18.77;;;0.00;81.00;;;;;;5057496;28;20024;-71
2021/04/13 04:48:16;;;;;;;27.33;19.60;;;0.00;81.10;;;;;;5053684;28;20030;-72
2021/04/13 04:50:42;;;;;;;31.52;18.83;;;0.00;81.10;;;;;;5039902;28;20350;-72
2021/04/13 04:53:08;;;;;;;28.08;19.25;;;0.00;81.20;;;;;;5041867;28;20128;-72
2021/04/13 04:55:33;;;;;;;31.38;19.42;;;0.00;81.10;;;;;;5046601;28;20345;-71
2021/04/13 04:57:59;;;;;;;28.65;19.48;;;-3276.70;81.00;;;;;;5046579;28;20032;-72
2021/04/13 05:00:25;;;;;;;28.88;19.55;;;-3276.70;81.00;;;;;;5038290;28;20027;-71
2021/04/13 05:02:50;;;;;;;27.60;18.63;;;-3276.70;81.10;;;;;;5040124;28;20025;-72
2021/04/13 05:05:16;;;;;;;26.92;18.15;;;0.00;81.20;;;;;;5044388;28;20056;-73
2021/04/13 05:07:42;;;;;;;29.20;19.77;;;0.00;81.20;;;;;;5042804;28;20189;-71
2021/04/13 05:10:08;;;;;;;31.77;19.35;;;0.00;81.20;;;;;;5040462;28;20090;-75
2021/04/13 05:12:34;;;;;;;26.38;19.08;;;0.00;81.10;;;;;;5045476;28;20025;-71
2021/04/13 05:14:59;;;;;;;29.42;18.25;;;0.00;80.90;;;;;;5047544;28;20048;-72
2021/04/13 05:17:25;;;;;;;28.10;19.20;;;0.00;80.90;;;;;;5042265;28;20037;-71
2021/04/13 05:19:50;;;;;;;33.58;21.77;;;0.10;80.90;;;;;;5053092;28;20031;-73
2021/04/13 05:22:16;;;;;;;28.67;21.75;;;0.10;80.80;;;;;;5056255;28;20028;-77
2021/04/13 05:24:43;;;;;;;28.75;18.88;;;0.20;80.90;;;;;;5047548;28;20095;-71
2021/04/13 05:27:09;;;;;;;27.35;20.27;;;0.30;80.80;;;;;;5043400;28;20041;-72
2021/04/13 05:29:34;;;;;;;28.58;19.05;;;0.30;80.70;;;;;;5036704;28;20052;-71
2021/04/13 05:32:00;;;;;;;31.77;19.95;;;0.30;80.40;;;;;;5060365;28;20383;-71
2021/04/13 05:34:26;;;;;;;27.35;19.75;;;0.40;80.30;;;;;;5060022;28;21420;-71
2021/04/13 05:36:54;;;;;;;28.33;19.92;;;0.40;80.30;;;;;;5066673;28;20112;-74
2021/04/13 05:39:21;;;;;;;26.27;20.10;;;0.50;80.20;;;;;;5065289;28;20016;-71
2021/04/13 05:41:48;;;;;;;27.98;19.50;;;0.50;80.10;;;;;;5066091;28;20048;-69
2021/04/13 05:44:15;;;;;;;30.42;21.90;;;0.60;80.10;;;;;;5062281;28;20036;-68
2021/04/13 05:46:41;;;;;;;28.15;20.35;;;0.70;80.00;;;;;;5063550;28;20341;-68
2021/04/13 05:49:07;;;;;;;28.58;20.63;;;0.80;79.90;;;;;;5063893;28;20091;-70
2021/04/13 05:51:33;;;;;;;26.63;19.10;;;0.90;79.90;;;;;;5064103;28;20064;-69
2021/04/13 05:53:59;;;;;;;27.90;20.70;;;1.00;79.80;;;;;;5061948;28;20107;-68
2021/04/13 05:56:30;;;;;;;33.33;21.25;;;1.00;79.50;;;;;;5065261;28;20043;-68
2021/04/13 05:58:55;;;;;;;36.55;25.55;;;1.10;79.20;;;;;;5061930;28;20028;-69
2021/04/13 06:01:24;;;;;;;34.35;24.35;;;1.10;79.10;;;;;;5064698;28;20158;-70
2021/04/13 06:03:50;;;;;;;31.83;22.65;;;1.20;79.00;;;;;;5063728;28;20498;-69
2021/04/13 06:06:16;;;;;;;30.35;22.27;;;1.20;78.80;;;;;;5062994;28;20480;-69
2021/04/13 06:08:42;;;;;;;32.25;22.55;;;1.30;78.80;;;;;;5056088;28;20573;-68
2021/04/13 06:11:12;;;;;;;28.73;21.27;;;1.30;78.80;;;;;;5060889;28;20123;-68
2021/04/13 06:13:38;;;;;;;37.20;22.85;;;1.40;78.80;;;;;;5060319;28;20068;-69
2021/04/13 06:16:06;;;;;;;33.25;21.27;;;1.40;78.80;;;;;;5061861;28;20063;-68
2021/04/13 06:18:32;;;;;;;30.83;21.27;;;1.50;78.80;;;;;;5064162;28;20032;-69
2021/04/13 06:20:57;;;;;;;30.65;21.58;;;1.60;78.80;;;;;;5064200;28;20124;-68
2021/04/13 06:23:23;;;;;;;32.90;21.75;;;1.70;78.80;;;;;;5056765;28;20529;-68
2021/04/13 06:25:49;;;;;;;31.48;21.92;;;1.80;78.70;;;;;;5072462;28;20032;-68
2021/04/13 06:28:14;;;;;;;32.05;22.55;;;1.80;78.70;;;;;;5069055;28;20383;-68
2021/04/13 06:30:41;;;;;;;30.63;21.45;;;1.90;78.60;;;;;;5065542;28;20025;-69
2021/04/13 06:33:07;;;;;;;33.47;22.63;;;2.10;78.50;;;;;;5067369;28;20036;-68
2021/04/13 06:35:34;;;;;;;31.92;23.00;;;2.10;78.30;;;;;;5063704;28;20024;-69
2021/04/13 06:38:03;;;;;;;32.80;23.58;;;2.20;78.30;;;;;;5059358;28;20154;-68
2021/04/13 06:40:49;;;;;;;29.73;23.05;;;2.30;78.40;;;;;;5067043;28;20037;-68
2021/04/13 06:43:15;;;;;;;32.00;23.52;;;2.50;78.30;;;;;;5059243;28;20040;-68
2021/04/13 06:46:02;;;;;;;32.83;22.70;;;2.60;78.00;;;;;;5066230;28;20032;-68
2021/04/13 06:48:54;;;;;;;32.08;22.13;;;2.70;77.60;;;;;;5067034;28;20123;-68
2021/04/13 06:51:59;;;;;;;33.33;21.83;;;2.90;77.20;;;;;;5054840;28;20083;-70
2021/04/13 06:54:44;;;;;;;40.22;25.02;;;3.10;76.80;;;;;;5074323;28;20021;-66
2021/04/13 06:57:34;;;;;;;28.60;22.27;;;3.10;76.20;;;;;;5057961;28;20024;-73
2021/04/13 07:00:22;;;;;;;33.55;21.95;;;3.40;76.20;;;;;;5057704;28;20025;-69
2021/04/13 07:02:50;;;;;;;27.30;21.75;;;3.50;75.90;;;;;;5055700;28;20028;-68
2021/04/13 07:05:34;;;;;;;30.25;21.23;;;3.70;74.80;;;;;;5054359;28;20029;-70
2021/04/13 07:08:11;;;;;;;31.23;21.85;;;3.80;74.30;;;;;;5048883;28;20514;-73
2021/04/13 07:10:45;;;;;;;31.88;21.05;;;4.10;73.70;;;;;;5047543;28;20028;-68
2021/04/13 07:13:18;;;;;;;28.45;21.60;;;4.30;73.40;;;;;;5061751;28;20068;-70
2021/04/13 07:15:59;;;;;;;31.67;21.88;;;4.50;72.20;;;;;;5065770;28;20040;-68
2021/04/13 07:19:05;;;;;;;32.60;20.38;;;4.70;71.60;;;;;;5049918;28;20043;-72
2021/04/13 07:21:51;;;;;;;26.65;20.10;;;4.90;71.20;;;;;;5040949;28;20033;-68
2021/04/13 07:24:39;;;;;;;29.42;19.90;;;5.10;70.40;;;;;;5032992;28;20033;-69
2021/04/13 07:27:21;;;;;;;27.05;19.73;;;5.20;68.80;;;;;;5034799;28;20053;-68
2021/04/13 07:30:16;;;;;;;28.15;18.65;;;5.60;68.60;;;;;;5065166;28;20491;-68
2021/04/13 07:32:42;;;;;;;27.77;20.17;;;5.80;68.20;;;;;;5046308;28;20043;-70
2021/04/13 07:35:16;;;;;;;26.85;19.02;;;6.10;67.30;;;;;;5037226;28;20021;-70
2021/04/13 07:37:46;;;;;;;29.60;18.40;;;6.20;66.60;;;;;;5045287;28;20037;-70
2021/04/13 07:40:16;;;;;;;25.23;16.83;;;6.50;65.70;;;;;;5043218;28;20034;-69
2021/04/13 07:42:49;;;;;;;26.88;17.58;;;6.30;66.10;;;;;;5058893;28;20111;-68
2021/04/13 07:45:36;;;;;;;25.70;17.70;;;6.40;65.90;;;;;;5053788;28;20035;-69
2021/04/13 07:48:16;;;;;;;27.17;18.58;;;6.60;66.70;;;;;;5055828;28;20254;-69
2021/04/13 07:50:42;;;;;;;23.10;16.73;;;6.90;64.10;;;;;;5054103;28;20072;-68
2021/04/13 07:53:43;;;;;;;23.38;16.70;;;7.20;63.50;;;;;;5054754;28;20118;-69
2021/04/13 07:56:30;;;;;;;23.13;16.98;;;7.40;62.50;;;;;;5056057;28;20048;-68
2021/04/13 07:59:26;;;;;;;24.05;16.20;;;7.60;61.70;;;;;;5048332;28;20033;-69
2021/04/13 08:01:52;;;;;;;30.08;16.95;;;7.70;61.40;;;;;;5033834;28;20036;-68
2021/04/13 08:04:20;;;;;;;23.50;15.60;;;7.70;62.70;;;;;;5040433;28;20025;-69
2021/04/13 08:06:59;;;;;;;22.75;17.02;;;8.00;61.80;;;;;;5043932;28;20434;-68
2021/04/13 08:09:39;;;;;;;23.70;17.55;;;8.10;61.40;;;;;;5053389;28;20025;-69
2021/04/13 08:12:10;;;;;;;23.88;19.05;;;8.20;62.70;;;;;;5042792;28;20028;-73
2021/04/13 08:14:43;;;;;;;24.77;18.23;;;8.10;62.30;;;;;;5042840;28;20412;-70
2021/04/13 08:17:22;;;;;;;25.23;18.63;;;8.10;62.60;;;;;;5046164;28;20061;-69
2021/04/13 08:20:04;;;;;;;25.58;18.33;;;8.40;62.80;;;;;;5046352;28;20064;-69
2021/04/13 08:23:06;;;;;;;23.52;18.73;;;8.60;61.20;;;;;;5046908;28;20035;-68
2021/04/13 08:25:53;;;;;;;27.23;19.20;;;8.60;61.60;;;;;;5050650;28;20075;-68
2021/04/13 08:28:36;;;;;;;27.23;18.88;;;8.60;61.10;;;;;;5041480;28;20041;-70
2021/04/13 08:35:17;;;;;;;22.23;18.52;;;8.60;60.60;;;;;;5066763;28;20035;-69
2021/04/13 08:37:54;;;;;;;24.38;18.45;;;9.10;60.40;;;;;;5057025;28;20067;-69
2021/04/13 08:40:34;;;;;;;20.85;18.17;;;9.10;60.00;;;;;;5062007;28;20375;-69
2021/04/13 08:43:23;;;;;;;22.85;18.17;;;9.10;60.70;;;;;;5058262;28;20473;-68
2021/04/13 08:46:30;;;;;;;21.85;17.67;;;9.20;58.80;;;;;;5031592;28;20119;-72
2021/04/13 08:49:25;;;;;;;18.52;15.32;;;9.50;58.10;;;;;;5063141;28;20028;-70
2021/04/13 08:52:37;;;;;;;21.05;17.23;;;9.70;57.60;;;;;;5064783;28;20032;-69
2021/04/13 08:55:12;;;;;;;25.77;19.38;;;9.90;56.40;;;;;;5042197;28;20044;-69
2021/04/13 08:57:44;;;;;;;23.45;18.55;;;9.80;58.30;;;;;;5043540;28;20389;-69
2021/04/13 09:00:45;;;;;;;24.25;20.15;;;9.90;59.10;;;;;;5043026;28;20547;-70
2021/04/13 09:03:14;;;;;;;24.95;21.10;;;10.00;57.60;;;;;;5035679;28;20080;-68
2021/04/13 09:05:41;;;;;;;24.48;20.58;;;10.40;57.10;;;;;;5040923;28;20032;-69
2021/04/13 09:08:43;;;;;;;24.73;20.00;;;10.30;55.70;;;;;;5039425;28;20475;-70
2021/04/13 09:11:35;;;;;;;25.23;19.40;;;10.00;56.50;;;;;;5042629;28;20114;-68
2021/04/13 09:14:24;;;;;;;22.55;20.05;;;10.10;56.00;;;;;;5048637;28;20124;-69
2021/04/13 09:17:06;;;;;;;26.40;21.55;;;9.80;55.90;;;;;;5054029;28;20475;-67
2021/04/13 09:19:40;;;;;;;27.02;20.60;;;9.70;57.40;;;;;;5064772;28;20025;-68
2021/04/13 09:22:28;;;;;;;25.38;19.92;;;9.60;57.10;;;;;;5064105;28;20383;-69
2021/04/13 09:25:12;;;;;;;23.38;18.58;;;9.60;56.90;;;;;;5060967;28;20036;-68
2021/04/13 09:28:02;;;;;;;23.17;18.98;;;9.40;55.50;;;;;;5066013;28;20048;-68
2021/04/13 09:30:36;;;;;;;23.63;19.30;;;9.70;55.90;;;;;;5066237;28;20024;-68
2021/04/13 09:33:29;;;;;;;22.38;18.60;;;9.60;54.80;;;;;;5064566;28;20032;-68
2021/04/13 09:36:11;;;;;;;21.88;18.55;;;9.60;56.10;;;;;;5064103;28;20067;-68
2021/04/13 09:38:46;;;;;;;22.58;17.92;;;10.10;53.30;;;;;;5065249;28;20464;-68
2021/04/13 09:41:24;;;;;;;24.05;19.67;;;10.60;52.40;;;;;;5065408;28;20414;-68
2021/04/13 09:44:09;;;;;;;22.30;17.25;;;10.80;52.10;;;;;;5063964;28;20043;-68
2021/04/13 09:47:19;;;;;;;20.88;16.50;;;11.10;51.30;;;;;;5064687;28;20029;-68
2021/04/13 09:50:26;;;;;;;17.65;12.85;;;11.30;47.80;;;;;;5003583;28;20485;-69
2021/04/13 09:52:55;;;;;;;22.35;16.13;;;11.40;45.70;;;;;;5058652;28;20095;-68
2021/04/13 09:55:57;;;;;;;19.55;15.45;;;11.60;48.70;;;;;;5054945;28;23010;-69
2021/04/13 09:58:48;;;;;;;18.58;15.23;;;11.90;47.90;;;;;;5065867;28;20032;-68
2021/04/13 10:02:07;;;;;;;16.90;14.90;;;11.50;45.70;;;;;;5051716;28;20495;-69
2021/04/13 10:04:48;;;;;;;19.60;15.27;;;11.20;47.40;;;;;;5028578;28;20036;-71
2021/04/13 10:07:23;;;;;;;22.58;14.90;;;11.70;46.70;;;;;;5049925;28;20095;-68
2021/04/13 10:09:50;;;;;;;18.25;14.15;;;12.10;44.20;;;;;;5063890;28;20456;-68
2021/04/13 10:12:32;;;;;;;19.80;15.32;;;12.10;44.60;;;;;;5066313;28;20345;-68
2021/04/13 10:15:24;;;;;;;20.63;14.75;;;11.70;44.30;;;;;;5061933;28;20036;-68
2021/04/13 10:18:23;;;;;;;18.35;14.55;;;11.70;43.70;;;;;;5069094;28;20037;-68
2021/04/13 10:21:01;;;;;;;23.00;14.48;;;11.80;45.50;;;;;;5056474;28;20033;-69
2021/04/13 10:24:04;;;;;;;19.40;15.27;;;12.10;44.00;;;;;;5046907;28;20464;-68
2021/04/13 10:26:58;;;;;;;20.02;14.25;;;12.40;44.80;;;;;;5054868;28;20072;-68
2021/04/13 10:29:58;;;;;;;19.60;15.45;;;12.90;43.50;;;;;;5041884;28;20478;-68
2021/04/13 10:32:42;;;;;;;16.23;12.15;;;12.60;42.60;;;;;;5046551;28;20044;-68
2021/04/13 10:35:23;;;;;;;17.38;12.52;;;12.10;41.50;;;;;;5042039;28;20061;-68
2021/04/13 10:38:01;;;;;;;15.95;12.48;;;11.70;42.20;;;;;;5040367;28;20045;-68
2021/04/13 10:40:59;;;;;;;16.08;12.57;;;11.80;42.90;;;;;;5066612;28;20028;-69
2021/04/13 10:43:44;;;;;;;15.82;12.45;;;11.80;41.10;;;;;;5065121;28;20032;-68
2021/04/13 10:46:37;;;;;;;14.98;11.38;;;11.20;42.70;;;;;;5064554;28;20048;-71
2021/04/13 10:49:36;;;;;;;14.38;11.15;;;11.00;43.20;;;;;;5065440;28;20146;-68
2021/04/13 10:52:35;;;;;;;15.93;12.52;;;10.80;41.50;;;;;;5065862;28;20031;-69
2021/04/13 10:55:48;;;;;;;16.17;11.15;;;11.20;41.60;;;;;;5064900;28;20479;-72
2021/04/13 10:58:34;;;;;;;15.88;11.65;;;11.40;40.20;;;;;;5017503;28;20032;-68
2021/04/13 11:01:29;;;;;;;14.27;11.23;;;11.10;40.20;;;;;;5076260;28;20352;-68
2021/04/13 11:04:22;;;;;;;17.83;12.23;;;10.60;40.30;;;;;;5063650;28;20464;-68
2021/04/13 11:07:23;;;;;;;15.35;11.80;;;11.00;40.90;;;;;;5061250;28;20392;-68
2021/04/13 11:10:13;;;;;;;17.50;12.07;;;11.20;40.90;;;;;;5028271;28;20121;-68
2021/04/13 11:13:14;;;;;;;14.75;11.13;;;11.90;40.50;;;;;;5066320;28;20086;-69
2021/04/13 11:15:58;;;;;;;14.73;11.60;;;12.50;37.50;;;;;;5055309;28;20325;-70
2021/04/13 11:18:36;;;;;;;14.70;11.00;;;12.60;37.00;;;;;;5060792;28;20052;-68
2021/04/13 11:21:29;;;;;;;15.60;10.68;;;12.90;36.50;;;;;;5052326;28;20116;-68
2021/04/13 11:24:03;;;;;;;13.23;10.60;;;12.90;35.50;;;;;;5041293;28;20153;-68
2021/04/13 11:27:09;;;;;;;14.07;10.52;;;12.70;35.10;;;;;;5036396;28;21107;-68
2021/04/13 11:30:17;;;;;;;14.63;10.60;;;12.80;33.80;;;;;;5064103;28;20036;-69
2021/04/13 11:33:20;;;;;;;12.90;10.13;;;12.70;36.00;;;;;;5043455;28;20080;-70
2021/04/13 11:35:59;;;;;;;14.43;10.48;;;13.70;37.00;;;;;;5055394;28;20106;-68
2021/04/13 11:38:40;;;;;;;12.40;9.52;;;14.00;35.20;;;;;;5055961;28;20021;-69
2021/04/13 11:41:33;;;;;;;11.48;9.60;;;14.50;33.70;;;;;;5063623;28;20039;-69
2021/04/13 11:44:30;;;;;;;11.38;9.68;;;14.70;31.90;;;;;;5056129;28;20052;-68
2021/04/13 11:47:19;;;;;;;13.20;10.18;;;14.40;32.20;;;;;;5053640;28;20035;-69
2021/04/13 11:50:14;;;;;;;13.57;10.20;;;13.90;34.30;;;;;;5066707;28;20024;-68
2021/04/13 11:52:47;;;;;;;13.85;10.20;;;13.40;34.20;;;;;;5045427;28;20039;-68
2021/04/13 11:55:28;;;;;;;12.77;10.00;;;13.00;33.50;;;;;;5063914;28;20536;-68
2021/04/13 11:58:34;;;;;;;12.27;9.55;;;12.80;35.30;;;;;;5067596;28;20111;-69
2021/04/13 12:01:16;;;;;;;14.10;10.85;;;12.30;35.20;;;;;;4990459;28;20038;-70
2021/04/13 12:04:06;;;;;;;12.27;9.82;;;12.00;36.90;;;;;;5034642;28;20045;-68
2021/04/13 12:06:56;;;;;;;13.63;10.90;;;11.70;38.40;;;;;;5036142;28;20025;-68
2021/04/13 12:09:58;;;;;;;12.63;9.95;;;11.60;37.80;;;;;;5054168;28;20075;-70
2021/04/13 12:12:31;;;;;;;14.02;11.00;;;11.60;38.20;;;;;;5032514;28;20038;-68
2021/04/13 12:15:17;;;;;;;14.88;10.73;;;11.40;38.70;;;;;;5033800;28;20037;-69
2021/04/13 12:17:45;;;;;;;16.15;10.95;;;11.40;38.30;;;;;;5010549;28;20486;-68
2021/04/13 12:20:26;;;;;;;14.05;11.23;;;11.30;38.80;;;;;;5057839;28;20460;-68
2021/04/13 12:22:56;;;;;;;15.00;11.82;;;11.20;38.30;;;;;;5047499;28;20063;-69
2021/04/13 12:25:43;;;;;;;13.55;11.23;;;11.10;39.00;;;;;;5043857;28;20044;-69
2021/04/13 12:28:11;;;;;;;14.27;11.25;;;11.00;40.30;;;;;;5039119;28;20052;-68
2021/04/13 12:30:58;;;;;;;14.23;11.48;;;11.10;38.80;;;;;;5061866;28;20510;-69
2021/04/13 12:33:27;;;;;;;15.05;11.18;;;11.80;38.90;;;;;;5055165;28;20475;-69
2021/04/13 12:35:57;;;;;;;15.50;11.15;;;12.20;37.20;;;;;;5037982;28;20031;-68
2021/04/13 12:38:45;;;;;;;15.13;11.30;;;12.60;37.10;;;;;;5044245;28;20075;-68
2021/04/13 12:41:24;;;;;;;14.25;11.18;;;12.70;34.20;;;;;;5047081;28;20452;-68
2021/04/13 12:44:18;;;;;;;13.23;10.27;;;13.00;35.10;;;;;;5050316;28;20056;-68
2021/04/13 12:46:48;;;;;;;14.05;10.30;;;13.20;35.20;;;;;;5054403;28;20025;-69
2021/04/13 12:49:13;;;;;;;13.23;9.65;;;13.40;35.10;;;;;;5047509;28;20029;-69
2021/04/13 12:52:04;;;;;;;12.82;9.30;;;13.70;34.00;;;;;;5061515;28;20532;-69
2021/04/13 12:54:44;;;;;;;12.07;9.25;;;14.10;33.00;;;;;;5050676;28;20064;-70
2021/04/13 12:57:18;;;;;;;12.57;8.30;;;14.00;31.80;;;;;;5060926;28;20079;-69
2021/04/13 12:59:44;;;;;;;13.30;9.52;;;14.20;31.50;;;;;;5051378;28;20415;-69
2021/04/13 13:02:28;;;;;;;12.32;9.55;;;14.10;32.30;;;;;;5041586;28;20060;-69
2021/04/13 13:04:55;;;;;;;13.88;10.45;;;13.70;32.60;;;;;;5036709;28;20361;-68
2021/04/13 13:07:24;;;;;;;12.65;9.90;;;13.80;33.60;;;;;;5041480;28;20041;-69
2021/04/13 13:09:51;;;;;;;12.52;9.80;;;13.90;32.90;;;;;;5045428;28;20102;-69
2021/04/13 13:12:47;;;;;;;12.70;10.15;;;14.30;33.20;;;;;;5041685;28;20056;-70
2021/04/13 13:15:14;;;;;;;13.10;9.52;;;13.90;33.80;;;;;;5025481;28;20037;-70
2021/04/13 13:17:51;;;;;;;13.85;9.38;;;14.10;32.60;;;;;;5046973;28;20467;-69
2021/04/13 13:20:36;;;;;;;13.07;9.73;;;14.20;33.30;;;;;;5045120;28;20119;-68
2021/04/13 13:23:02;;;;;;;12.52;9.38;;;14.10;31.90;;;;;;5046498;28;20051;-69
2021/04/13 13:25:36;;;;;;;11.25;8.60;;;14.30;31.90;;;;;;5039651;28;20100;-68
2021/04/13 13:28:26;;;;;;;10.85;8.70;;;14.60;33.30;;;;;;5046773;28;20048;-68
2021/04/13 13:30:53;;;;;;;11.27;9.40;;;14.80;31.90;;;;;;5042821;28;20578;-69
2021/04/13 13:33:20;;;;;;;11.38;8.70;;;14.70;31.30;;;;;;5043896;28;20090;-69
2021/04/13 13:35:47;;;;;;;11.05;7.45;;;14.80;31.60;;;;;;5054478;28;20040;-69